createdAt,value
2022-08-18T00:00:32.454Z,1005.64
2022-08-18T00:01:07.552Z,1005.61
2022-08-18T00:01:42.861Z,1005.65
2022-08-18T00:02:18.149Z,1005.68
2022-08-18T00:03:01.085Z,1005.66
2022-08-18T00:03:56.109Z,1005.69
2022-08-18T00:04:14.755Z,1005.66
2022-08-18T00:04:45.324Z,1005.69
2022-08-18T00:05:14.847Z,1005.72
2022-08-18T00:05:50.022Z,1005.75
2022-08-18T00:06:27.934Z,1005.73
2022-08-18T00:07:00.916Z,1005.75
2022-08-18T00:07:35.895Z,1005.75
2022-08-18T00:08:10.816Z,1005.72
2022-08-18T00:08:46.013Z,1005.73
2022-08-18T00:09:21.011Z,1005.73
2022-08-18T00:09:56.317Z,1005.74
2022-08-18T00:10:31.719Z,1005.71
2022-08-18T00:11:06.917Z,1005.71
2022-08-18T00:11:42.283Z,1005.71
2022-08-18T00:12:17.409Z,1005.71
2022-08-18T00:12:52.806Z,1005.70
2022-08-18T00:13:28.209Z,1005.71
2022-08-18T00:14:03.469Z,1005.70
2022-08-18T00:14:38.569Z,1005.69
2022-08-18T00:15:13.796Z,1005.66
2022-08-18T00:15:49.424Z,1005.69
2022-08-18T00:16:24.169Z,1005.68
2022-08-18T00:16:59.476Z,1005.65
2022-08-18T00:17:34.680Z,1005.69
2022-08-18T00:18:09.772Z,1005.68
2022-08-18T00:18:45.071Z,1005.67
2022-08-18T00:19:20.465Z,1005.62
2022-08-18T00:19:55.764Z,1005.65
2022-08-18T00:20:30.775Z,1005.65
2022-08-18T00:21:05.855Z,1005.66
2022-08-18T00:21:41.164Z,1005.70
2022-08-18T00:22:16.366Z,1005.71
2022-08-18T00:22:51.563Z,1005.69
2022-08-18T00:23:27.108Z,1005.73
2022-08-18T00:24:02.270Z,1005.75
2022-08-18T00:24:37.681Z,1005.73
2022-08-18T00:25:13.089Z,1005.75
2022-08-18T00:25:48.574Z,1005.79
2022-08-18T00:26:24.206Z,1005.79
2022-08-18T00:26:59.721Z,1005.82
2022-08-18T00:27:35.037Z,1005.84
2022-08-18T00:28:10.131Z,1005.83
2022-08-18T00:28:45.635Z,1005.86
2022-08-18T00:29:20.630Z,1005.87
2022-08-18T00:29:55.821Z,1005.89
2022-08-18T00:30:31.422Z,1005.90
2022-08-18T00:31:06.736Z,1005.91
2022-08-18T00:31:42.031Z,1005.89
2022-08-18T00:32:17.123Z,1005.87
2022-08-18T00:32:52.432Z,1005.91
2022-08-18T00:33:27.673Z,1005.88
2022-08-18T00:34:03.167Z,1005.88
2022-08-18T00:34:38.506Z,1005.84
2022-08-18T00:35:13.829Z,1005.88
2022-08-18T00:35:49.102Z,1005.86
2022-08-18T00:36:24.502Z,1005.86
2022-08-18T00:36:59.808Z,1005.89
2022-08-18T00:37:34.806Z,1005.88
2022-08-18T00:38:23.345Z,1005.89
2022-08-18T00:38:45.134Z,1005.90
2022-08-18T00:39:20.769Z,1005.93
2022-08-18T00:39:56.297Z,1005.94
2022-08-18T00:40:35.753Z,1005.87
2022-08-18T00:41:06.497Z,1005.94
2022-08-18T00:41:42.001Z,1005.94
2022-08-18T00:42:28.183Z,1005.92
2022-08-18T00:42:52.998Z,1005.94
2022-08-18T00:43:27.979Z,1005.92
2022-08-18T00:44:02.984Z,1005.91
2022-08-18T00:44:38.362Z,1005.90
2022-08-18T00:45:13.464Z,1005.87
2022-08-18T00:45:48.454Z,1005.85
2022-08-18T00:46:23.347Z,1005.87
2022-08-18T00:46:58.576Z,1005.86
2022-08-18T00:47:42.416Z,1005.84
2022-08-18T00:48:09.006Z,1005.87
2022-08-18T00:48:48.370Z,1005.86
2022-08-18T00:49:20.122Z,1005.79
2022-08-18T00:49:55.435Z,1005.81
2022-08-18T00:50:30.670Z,1005.82
2022-08-18T00:51:05.664Z,1005.81
2022-08-18T00:51:40.898Z,1005.80
2022-08-18T00:52:16.016Z,1005.81
2022-08-18T00:52:51.320Z,1005.75
2022-08-18T00:53:26.722Z,1005.77
2022-08-18T00:54:02.028Z,1005.79
2022-08-18T00:54:37.234Z,1005.77
2022-08-18T00:55:12.765Z,1005.76
2022-08-18T00:55:49.270Z,1005.74
2022-08-18T00:56:23.070Z,1005.73
2022-08-18T00:56:58.396Z,1005.75
2022-08-18T00:57:33.602Z,1005.74
2022-08-18T00:58:08.717Z,1005.73
2022-08-18T00:58:43.837Z,1005.73
2022-08-18T00:59:18.998Z,1005.69
2022-08-18T00:59:54.199Z,1005.70
2022-08-18T01:00:29.356Z,1005.67
2022-08-18T01:01:05.053Z,1005.69
2022-08-18T01:01:40.293Z,1005.71
2022-08-18T01:02:15.713Z,1005.69
2022-08-18T01:02:50.937Z,1005.67
2022-08-18T01:03:26.043Z,1005.68
2022-08-18T01:04:01.265Z,1005.70
2022-08-18T01:04:36.709Z,1005.70
2022-08-18T01:05:11.964Z,1005.71
2022-08-18T01:05:47.286Z,1005.71
2022-08-18T01:06:22.478Z,1005.70
2022-08-18T01:06:57.922Z,1005.72
2022-08-18T01:07:33.011Z,1005.73
2022-08-18T01:08:08.324Z,1005.70
2022-08-18T01:08:43.746Z,1005.73
2022-08-18T01:09:19.053Z,1005.73
2022-08-18T01:09:54.369Z,1005.72
2022-08-18T01:10:29.571Z,1005.75
2022-08-18T01:11:04.873Z,1005.76
2022-08-18T01:11:40.154Z,1005.73
2022-08-18T01:12:45.806Z,1005.74
2022-08-18T01:12:50.502Z,1005.77
2022-08-18T01:13:25.491Z,1005.76
2022-08-18T01:14:00.698Z,1005.74
2022-08-18T01:14:35.789Z,1005.77
2022-08-18T01:15:13.846Z,1005.73
2022-08-18T01:15:46.433Z,1005.74
2022-08-18T01:16:21.412Z,1005.71
2022-08-18T01:16:57.787Z,1005.68
2022-08-18T01:17:31.796Z,1005.70
2022-08-18T01:18:07.016Z,1005.72
2022-08-18T01:18:42.122Z,1005.69
2022-08-18T01:19:17.427Z,1005.69
2022-08-18T01:19:52.539Z,1005.66
2022-08-18T01:20:27.741Z,1005.70
2022-08-18T01:21:03.122Z,1005.70
2022-08-18T01:21:38.399Z,1005.64
2022-08-18T01:22:13.515Z,1005.66
2022-08-18T01:22:48.628Z,1005.65
2022-08-18T01:23:23.926Z,1005.64
2022-08-18T01:23:59.235Z,1005.64
2022-08-18T01:24:34.136Z,1005.62
2022-08-18T01:25:09.351Z,1005.60
2022-08-18T01:25:44.658Z,1005.60
2022-08-18T01:26:19.872Z,1005.60
2022-08-18T01:26:55.191Z,1005.58
2022-08-18T01:27:30.675Z,1005.59
2022-08-18T01:28:06.289Z,1005.62
2022-08-18T01:28:41.674Z,1005.58
2022-08-18T01:29:19.060Z,1005.61
2022-08-18T01:29:52.391Z,1005.63
2022-08-18T01:30:27.388Z,1005.57
2022-08-18T01:31:02.604Z,1005.56
2022-08-18T01:31:37.898Z,1005.57
2022-08-18T01:32:13.312Z,1005.54
2022-08-18T01:32:48.109Z,1005.56
2022-08-18T01:33:26.726Z,1005.51
2022-08-18T01:33:58.547Z,1005.53
2022-08-18T01:34:33.537Z,1005.54
2022-08-18T01:35:08.944Z,1005.57
2022-08-18T01:35:44.029Z,1005.56
2022-08-18T01:36:19.439Z,1005.58
2022-08-18T01:36:54.576Z,1005.57
2022-08-18T01:37:29.572Z,1005.57
2022-08-18T01:38:04.809Z,1005.58
2022-08-18T01:38:39.924Z,1005.59
2022-08-18T01:39:15.234Z,1005.61
2022-08-18T01:41:22.007Z,1005.62
2022-08-18T01:41:22.676Z,1005.64
2022-08-18T01:41:26.441Z,1005.60
2022-08-18T01:41:36.079Z,1005.64
2022-08-18T01:42:11.148Z,1005.64
2022-08-18T01:42:46.191Z,1005.64
2022-08-18T01:43:21.305Z,1005.66
2022-08-18T01:43:56.525Z,1005.64
2022-08-18T01:44:31.825Z,1005.67
2022-08-18T01:45:07.139Z,1005.62
2022-08-18T01:45:42.111Z,1005.67
2022-08-18T01:46:17.424Z,1005.65
2022-08-18T01:46:52.537Z,1005.68
2022-08-18T01:47:27.851Z,1005.67
2022-08-18T01:48:03.196Z,1005.70
2022-08-18T01:48:38.280Z,1005.68
2022-08-18T01:49:13.432Z,1005.69
2022-08-18T01:49:48.517Z,1005.73
2022-08-18T01:50:23.824Z,1005.70
2022-08-18T01:50:59.152Z,1005.73
2022-08-18T01:51:39.514Z,1005.68
2022-08-18T01:52:09.255Z,1005.71
2022-08-18T01:52:44.858Z,1005.74
2022-08-18T01:53:20.261Z,1005.74
2022-08-18T01:53:55.284Z,1005.69
2022-08-18T01:54:30.431Z,1005.73
2022-08-18T01:55:05.980Z,1005.72
2022-08-18T01:55:41.208Z,1005.67
2022-08-18T01:56:16.612Z,1005.71
2022-08-18T01:56:52.120Z,1005.70
2022-08-18T01:57:27.128Z,1005.70
2022-08-18T01:58:02.740Z,1005.72
2022-08-18T01:58:38.030Z,1005.69
2022-08-18T01:59:13.342Z,1005.69
2022-08-18T01:59:48.538Z,1005.71
2022-08-18T02:00:23.932Z,1005.71
2022-08-18T02:00:59.349Z,1005.74
2022-08-18T02:01:37.018Z,1005.72
2022-08-18T02:02:09.780Z,1005.71
2022-08-18T02:02:44.686Z,1005.72
2022-08-18T02:03:19.990Z,1005.73
2022-08-18T02:04:10.849Z,1005.72
2022-08-18T02:04:37.753Z,1005.72
2022-08-18T02:05:05.983Z,1005.73
2022-08-18T02:05:41.403Z,1005.73
2022-08-18T02:06:16.582Z,1005.72
2022-08-18T02:06:51.886Z,1005.73
2022-08-18T02:07:32.650Z,1005.71
2022-08-18T02:08:02.433Z,1005.75
2022-08-18T02:08:37.516Z,1005.73
2022-08-18T02:09:12.821Z,1005.72
2022-08-18T02:09:47.916Z,1005.73
2022-08-18T02:10:23.236Z,1005.73
2022-08-18T02:10:58.163Z,1005.70
2022-08-18T02:11:33.244Z,1005.74
2022-08-18T02:12:08.267Z,1005.73
2022-08-18T02:12:43.370Z,1005.70
2022-08-18T02:13:18.567Z,1005.67
2022-08-18T02:13:53.799Z,1005.70
2022-08-18T02:14:31.480Z,1005.68
2022-08-18T02:15:04.630Z,1005.67
2022-08-18T02:15:41.473Z,1005.64
2022-08-18T02:16:15.117Z,1005.64
2022-08-18T02:16:50.195Z,1005.65
2022-08-18T02:17:25.323Z,1005.65
2022-08-18T02:18:00.715Z,1005.65
2022-08-18T02:18:47.594Z,1005.65
2022-08-18T02:19:11.146Z,1005.65
2022-08-18T02:19:46.226Z,1005.63
2022-08-18T02:20:21.515Z,1005.62
2022-08-18T02:20:56.517Z,1005.64
2022-08-18T02:21:31.721Z,1005.68
2022-08-18T02:22:07.137Z,1005.68
2022-08-18T02:22:42.443Z,1005.68
2022-08-18T02:23:17.854Z,1005.68
2022-08-18T02:23:53.815Z,1005.68
2022-08-18T02:24:27.962Z,1005.66
2022-08-18T02:25:03.054Z,1005.68
2022-08-18T02:25:38.659Z,1005.68
2022-08-18T02:26:13.668Z,1005.64
2022-08-18T02:26:49.063Z,1005.69
2022-08-18T02:27:24.204Z,1005.66
2022-08-18T02:27:59.613Z,1005.63
2022-08-18T02:28:34.723Z,1005.65
2022-08-18T02:29:09.834Z,1005.60
2022-08-18T02:29:45.428Z,1005.62
2022-08-18T02:30:20.835Z,1005.62
2022-08-18T02:30:56.143Z,1005.58
2022-08-18T02:31:31.260Z,1005.57
2022-08-18T02:32:06.367Z,1005.61
2022-08-18T02:32:41.646Z,1005.58
2022-08-18T02:33:17.036Z,1005.57
2022-08-18T02:33:52.724Z,1005.59
2022-08-18T02:34:27.789Z,1005.57
2022-08-18T02:35:03.088Z,1005.61
2022-08-18T02:35:38.392Z,1005.61
2022-08-18T02:36:13.701Z,1005.65
2022-08-18T02:36:48.896Z,1005.61
2022-08-18T02:37:24.159Z,1005.64
2022-08-18T02:37:59.350Z,1005.63
2022-08-18T02:38:34.454Z,1005.68
2022-08-18T02:39:09.663Z,1005.68
2022-08-18T02:39:45.333Z,1005.66
2022-08-18T02:40:20.532Z,1005.67
2022-08-18T02:40:55.740Z,1005.72
2022-08-18T02:41:31.380Z,1005.69
2022-08-18T02:42:06.563Z,1005.71
2022-08-18T02:42:42.143Z,1005.70
2022-08-18T02:43:17.549Z,1005.72
2022-08-18T02:43:52.854Z,1005.71
2022-08-18T02:44:28.115Z,1005.73
2022-08-18T02:45:03.315Z,1005.75
2022-08-18T02:45:38.611Z,1005.71
2022-08-18T02:46:14.128Z,1005.74
2022-08-18T02:46:49.259Z,1005.75
2022-08-18T02:47:24.276Z,1005.77
2022-08-18T02:47:59.267Z,1005.75
2022-08-18T02:48:34.354Z,1005.75
2022-08-18T02:49:09.437Z,1005.74
2022-08-18T02:49:44.644Z,1005.73
2022-08-18T02:50:20.133Z,1005.72
2022-08-18T02:50:55.309Z,1005.77
2022-08-18T02:51:30.435Z,1005.78
2022-08-18T02:52:05.737Z,1005.76
2022-08-18T02:52:41.253Z,1005.78
2022-08-18T02:53:16.306Z,1005.79
2022-08-18T02:53:51.704Z,1005.77
2022-08-18T02:54:26.903Z,1005.76
2022-08-18T02:55:02.290Z,1005.75
2022-08-18T02:55:37.804Z,1005.74
2022-08-18T02:56:13.303Z,1005.72
2022-08-18T02:56:48.512Z,1005.76
2022-08-18T02:57:23.741Z,1005.76
2022-08-18T02:57:58.947Z,1005.69
2022-08-18T02:58:34.041Z,1005.71
2022-08-18T02:59:09.131Z,1005.72
2022-08-18T02:59:46.846Z,1005.67
2022-08-18T03:00:19.521Z,1005.70
2022-08-18T03:00:54.719Z,1005.72
2022-08-18T03:01:30.073Z,1005.68
2022-08-18T03:02:05.121Z,1005.67
2022-08-18T03:02:40.265Z,1005.71
2022-08-18T03:03:15.457Z,1005.66
2022-08-18T03:03:50.572Z,1005.64
2022-08-18T03:04:28.848Z,1005.63
2022-08-18T03:05:00.696Z,1005.62
2022-08-18T03:05:35.833Z,1005.66
2022-08-18T03:06:11.517Z,1005.64
2022-08-18T03:06:46.519Z,1005.65
2022-08-18T03:07:21.615Z,1005.68
2022-08-18T03:07:56.614Z,1005.68
2022-08-18T03:08:31.821Z,1005.69
2022-08-18T03:09:06.725Z,1005.70
2022-08-18T03:09:42.161Z,1005.68
2022-08-18T03:10:32.800Z,1005.67
2022-08-18T03:10:52.755Z,1005.68
2022-08-18T03:11:28.096Z,1005.66
2022-08-18T03:12:03.406Z,1005.67
2022-08-18T03:12:38.941Z,1005.72
2022-08-18T03:13:14.026Z,1005.73
2022-08-18T03:13:49.159Z,1005.74
2022-08-18T03:14:24.454Z,1005.72
2022-08-18T03:14:59.555Z,1005.72
2022-08-18T03:15:34.562Z,1005.75
2022-08-18T03:16:09.948Z,1005.75
2022-08-18T03:16:53.234Z,1005.77
2022-08-18T03:17:20.309Z,1005.74
2022-08-18T03:17:55.515Z,1005.73
2022-08-18T03:18:30.708Z,1005.77
2022-08-18T03:19:05.931Z,1005.78
2022-08-18T03:19:41.373Z,1005.78
2022-08-18T03:20:16.557Z,1005.76
2022-08-18T03:20:51.663Z,1005.75
2022-08-18T03:21:27.066Z,1005.78
2022-08-18T03:22:02.912Z,1005.77
2022-08-18T03:22:38.027Z,1005.79
2022-08-18T03:23:13.230Z,1005.77
2022-08-18T03:23:57.322Z,1005.78
2022-08-18T03:24:23.919Z,1005.78
2022-08-18T03:24:58.712Z,1005.78
2022-08-18T03:25:33.613Z,1005.82
2022-08-18T03:26:09.021Z,1005.80
2022-08-18T03:26:44.737Z,1005.82
2022-08-18T03:27:19.882Z,1005.75
2022-08-18T03:27:55.119Z,1005.82
2022-08-18T03:28:30.419Z,1005.78
2022-08-18T03:29:05.625Z,1005.77
2022-08-18T03:29:40.893Z,1005.76
2022-08-18T03:30:16.307Z,1005.78
2022-08-18T03:30:51.328Z,1005.78
2022-08-18T03:31:27.853Z,1005.78
2022-08-18T03:32:01.638Z,1005.77
2022-08-18T03:32:36.885Z,1005.79
2022-08-18T03:33:12.175Z,1005.81
2022-08-18T03:33:47.477Z,1005.82
2022-08-18T03:34:22.572Z,1005.83
2022-08-18T03:34:57.880Z,1005.82
2022-08-18T03:35:32.886Z,1005.82
2022-08-18T03:36:08.197Z,1005.81
2022-08-18T03:36:43.405Z,1005.78
2022-08-18T03:37:18.853Z,1005.74
2022-08-18T03:37:54.082Z,1005.77
2022-08-18T03:38:29.085Z,1005.82
2022-08-18T03:39:04.182Z,1005.85
2022-08-18T03:39:39.326Z,1005.81
2022-08-18T03:40:14.828Z,1005.84
2022-08-18T03:40:50.196Z,1005.82
2022-08-18T03:41:44.388Z,1005.84
2022-08-18T03:42:01.863Z,1005.83
2022-08-18T03:42:36.202Z,1005.84
2022-08-18T03:43:49.525Z,1005.82
2022-08-18T03:43:51.322Z,1005.84
2022-08-18T03:44:21.807Z,1005.81
2022-08-18T03:44:56.922Z,1005.76
2022-08-18T03:45:31.806Z,1005.77
2022-08-18T03:46:07.017Z,1005.77
2022-08-18T03:46:42.222Z,1005.79
2022-08-18T03:47:17.575Z,1005.77
2022-08-18T03:47:53.250Z,1005.77
2022-08-18T03:48:28.544Z,1005.74
2022-08-18T03:49:03.959Z,1005.68
2022-08-18T03:49:39.047Z,1005.73
2022-08-18T03:50:14.367Z,1005.73
2022-08-18T03:50:49.168Z,1005.74
2022-08-18T03:51:24.273Z,1005.77
2022-08-18T03:51:59.798Z,1005.76
2022-08-18T03:52:34.996Z,1005.77
2022-08-18T03:53:10.130Z,1005.79
2022-08-18T03:53:45.428Z,1005.80
2022-08-18T03:54:20.868Z,1005.80
2022-08-18T03:54:55.980Z,1005.80
2022-08-18T03:55:31.169Z,1005.78
2022-08-18T03:56:06.289Z,1005.81
2022-08-18T03:56:41.613Z,1005.79
2022-08-18T03:57:16.817Z,1005.75
2022-08-18T03:57:52.320Z,1005.75
2022-08-18T03:58:27.417Z,1005.76
2022-08-18T03:59:02.850Z,1005.77
2022-08-18T03:59:38.227Z,1005.77
2022-08-18T04:00:13.320Z,1005.78
2022-08-18T04:00:48.852Z,1005.77
2022-08-18T04:01:26.552Z,1005.81
2022-08-18T04:01:59.568Z,1005.82
2022-08-18T04:02:34.588Z,1005.80
2022-08-18T04:03:09.896Z,1005.79
2022-08-18T04:03:44.878Z,1005.75
2022-08-18T04:04:19.785Z,1005.78
2022-08-18T04:04:55.096Z,1005.78
2022-08-18T04:05:30.595Z,1005.77
2022-08-18T04:06:08.672Z,1005.79
2022-08-18T04:06:40.998Z,1005.79
2022-08-18T04:07:16.230Z,1005.75
2022-08-18T04:07:51.640Z,1005.77
2022-08-18T04:08:26.787Z,1005.74
2022-08-18T04:09:01.925Z,1005.75
2022-08-18T04:09:36.761Z,1005.79
2022-08-18T04:10:16.269Z,1005.76
2022-08-18T04:10:47.384Z,1005.76
2022-08-18T04:11:22.712Z,1005.75
2022-08-18T04:11:58.136Z,1005.74
2022-08-18T04:12:33.320Z,1005.72
2022-08-18T04:13:08.925Z,1005.73
2022-08-18T04:13:44.130Z,1005.74
2022-08-18T04:14:19.557Z,1005.73
2022-08-18T04:15:02.500Z,1005.77
2022-08-18T04:15:37.807Z,1005.75
2022-08-18T04:16:13.098Z,1005.76
2022-08-18T04:16:48.295Z,1005.77
2022-08-18T04:17:23.756Z,1005.76
2022-08-18T04:18:03.743Z,1005.73
2022-08-18T04:18:34.148Z,1005.75
2022-08-18T04:19:09.472Z,1005.74
2022-08-18T04:19:44.589Z,1005.73
2022-08-18T04:20:20.003Z,1005.74
2022-08-18T04:20:59.332Z,1005.73
2022-08-18T04:21:30.609Z,1005.72
2022-08-18T04:22:06.207Z,1005.71
2022-08-18T04:22:41.541Z,1005.73
2022-08-18T04:23:17.067Z,1005.71
2022-08-18T04:23:52.060Z,1005.71
2022-08-18T04:24:28.047Z,1005.71
2022-08-18T04:25:02.564Z,1005.71
2022-08-18T04:25:37.890Z,1005.71
2022-08-18T04:26:17.317Z,1005.72
2022-08-18T04:26:48.379Z,1005.73
2022-08-18T04:27:23.613Z,1005.74
2022-08-18T04:27:58.929Z,1005.74
2022-08-18T04:28:34.133Z,1005.74
2022-08-18T04:29:09.345Z,1005.72
2022-08-18T04:29:44.784Z,1005.78
2022-08-18T04:30:20.021Z,1005.78
2022-08-18T04:30:55.247Z,1005.78
2022-08-18T04:31:30.425Z,1005.83
2022-08-18T04:32:05.549Z,1005.83
2022-08-18T04:32:40.948Z,1005.82
2022-08-18T04:33:16.162Z,1005.83
2022-08-18T04:33:51.467Z,1005.84
2022-08-18T04:34:27.089Z,1005.81
2022-08-18T04:35:02.743Z,1005.81
2022-08-18T04:35:37.814Z,1005.82
2022-08-18T04:36:13.156Z,1005.82
2022-08-18T04:36:48.153Z,1005.81
2022-08-18T04:37:23.396Z,1005.84
2022-08-18T04:37:58.511Z,1005.81
2022-08-18T04:38:33.838Z,1005.86
2022-08-18T04:39:09.190Z,1005.82
2022-08-18T04:39:44.653Z,1005.88
2022-08-18T04:40:24.338Z,1005.89
2022-08-18T04:40:54.884Z,1005.86
2022-08-18T04:41:30.394Z,1005.88
2022-08-18T04:42:05.519Z,1005.86
2022-08-18T04:42:43.142Z,1005.88
2022-08-18T04:43:16.191Z,1005.91
2022-08-18T04:43:50.990Z,1005.89
2022-08-18T04:44:26.100Z,1005.89
2022-08-18T04:45:01.617Z,1005.92
2022-08-18T04:45:37.434Z,1005.92
2022-08-18T04:46:12.869Z,1005.90
2022-08-18T04:46:48.185Z,1005.90
2022-08-18T04:47:23.355Z,1005.92
2022-08-18T04:47:58.563Z,1005.91
2022-08-18T04:48:34.171Z,1005.93
2022-08-18T04:49:09.414Z,1005.94
2022-08-18T04:49:44.605Z,1005.93
2022-08-18T04:50:20.036Z,1005.99
2022-08-18T04:50:55.271Z,1006.00
2022-08-18T04:52:32.033Z,1005.99
2022-08-18T04:52:38.972Z,1006.01
2022-08-18T04:52:41.901Z,1006.02
2022-08-18T04:53:16.544Z,1006.04
2022-08-18T04:53:51.753Z,1006.04
2022-08-18T04:54:27.271Z,1006.07
2022-08-18T04:55:02.562Z,1006.09
2022-08-18T04:55:37.829Z,1006.05
2022-08-18T04:56:13.240Z,1006.04
2022-08-18T04:56:48.466Z,1006.07
2022-08-18T04:57:23.701Z,1006.06
2022-08-18T04:57:58.910Z,1006.03
2022-08-18T04:58:34.030Z,1006.03
2022-08-18T04:59:09.132Z,1006.04
2022-08-18T04:59:44.158Z,1006.01
2022-08-18T05:00:19.370Z,1005.98
2022-08-18T05:00:54.629Z,1005.99
2022-08-18T05:01:29.944Z,1005.99
2022-08-18T05:02:05.077Z,1005.96
2022-08-18T05:02:40.594Z,1005.96
2022-08-18T05:03:15.683Z,1005.97
2022-08-18T05:03:51.465Z,1005.95
2022-08-18T05:04:26.598Z,1006.00
2022-08-18T05:05:02.000Z,1005.97
2022-08-18T05:05:37.457Z,1005.98
2022-08-18T05:06:12.468Z,1005.96
2022-08-18T05:06:47.787Z,1006.00
2022-08-18T05:07:23.220Z,1005.98
2022-08-18T05:07:58.840Z,1006.00
2022-08-18T05:08:34.453Z,1005.99
2022-08-18T05:09:09.759Z,1005.97
2022-08-18T05:09:44.991Z,1005.94
2022-08-18T05:10:20.557Z,1006.01
2022-08-18T05:10:59.093Z,1006.00
2022-08-18T05:11:31.503Z,1006.03
2022-08-18T05:12:06.600Z,1006.01
2022-08-18T05:12:42.232Z,1006.04
2022-08-18T05:13:17.532Z,1006.04
2022-08-18T05:13:52.852Z,1006.01
2022-08-18T05:14:28.028Z,1006.04
2022-08-18T05:15:03.115Z,1006.05
2022-08-18T05:15:59.415Z,1006.06
2022-08-18T05:16:18.195Z,1006.04
2022-08-18T05:16:49.679Z,1006.08
2022-08-18T05:17:24.595Z,1006.11
2022-08-18T05:17:59.606Z,1006.11
2022-08-18T05:18:34.928Z,1006.14
2022-08-18T05:19:10.453Z,1006.16
2022-08-18T05:19:45.683Z,1006.21
2022-08-18T05:20:21.242Z,1006.17
2022-08-18T05:20:56.497Z,1006.22
2022-08-18T05:21:31.932Z,1006.21
2022-08-18T05:22:07.155Z,1006.23
2022-08-18T05:22:42.484Z,1006.24
2022-08-18T05:23:17.820Z,1006.22
2022-08-18T05:23:53.136Z,1006.23
2022-08-18T05:24:32.165Z,1006.21
2022-08-18T05:25:03.303Z,1006.21
2022-08-18T05:25:38.705Z,1006.20
2022-08-18T05:26:13.808Z,1006.26
2022-08-18T05:26:49.038Z,1006.24
2022-08-18T05:27:24.532Z,1006.27
2022-08-18T05:27:59.959Z,1006.25
2022-08-18T05:28:35.091Z,1006.24
2022-08-18T05:29:19.081Z,1006.22
2022-08-18T05:29:46.335Z,1006.25
2022-08-18T05:30:20.997Z,1006.25
2022-08-18T05:30:56.468Z,1006.22
2022-08-18T05:31:31.766Z,1006.23
2022-08-18T05:32:07.173Z,1006.23
2022-08-18T05:32:49.265Z,1006.22
2022-08-18T05:33:17.364Z,1006.25
2022-08-18T05:33:52.713Z,1006.24
2022-08-18T05:34:28.090Z,1006.25
2022-08-18T05:35:03.309Z,1006.24
2022-08-18T05:35:38.525Z,1006.23
2022-08-18T05:36:13.669Z,1006.23
2022-08-18T05:36:48.999Z,1006.26
2022-08-18T05:37:24.150Z,1006.24
2022-08-18T05:37:59.264Z,1006.25
2022-08-18T05:38:34.712Z,1006.24
2022-08-18T05:39:09.841Z,1006.24
2022-08-18T05:39:45.431Z,1006.26
2022-08-18T05:40:20.548Z,1006.24
2022-08-18T05:40:55.714Z,1006.25
2022-08-18T05:41:30.908Z,1006.24
2022-08-18T05:42:06.111Z,1006.22
2022-08-18T05:42:41.263Z,1006.22
2022-08-18T05:43:16.678Z,1006.24
2022-08-18T05:43:52.566Z,1006.24
2022-08-18T05:44:27.608Z,1006.25
2022-08-18T05:45:02.711Z,1006.26
2022-08-18T05:45:38.027Z,1006.27
2022-08-18T05:46:13.114Z,1006.25
2022-08-18T05:46:48.633Z,1006.24
2022-08-18T05:47:24.134Z,1006.25
2022-08-18T05:47:59.668Z,1006.31
2022-08-18T05:48:37.564Z,1006.31
2022-08-18T05:49:10.698Z,1006.27
2022-08-18T05:49:45.750Z,1006.32
2022-08-18T05:50:21.198Z,1006.30
2022-08-18T05:50:56.353Z,1006.28
2022-08-18T05:51:31.548Z,1006.30
2022-08-18T05:52:06.996Z,1006.27
2022-08-18T05:52:42.195Z,1006.28
2022-08-18T05:53:17.431Z,1006.27
2022-08-18T05:53:52.720Z,1006.25
2022-08-18T05:54:28.039Z,1006.28
2022-08-18T05:55:03.321Z,1006.28
2022-08-18T05:55:38.712Z,1006.28
2022-08-18T05:56:14.011Z,1006.28
2022-08-18T05:56:49.213Z,1006.30
2022-08-18T05:57:24.629Z,1006.27
2022-08-18T05:58:00.297Z,1006.29
2022-08-18T05:58:35.481Z,1006.29
2022-08-18T05:59:10.512Z,1006.28
2022-08-18T05:59:45.751Z,1006.28
2022-08-18T06:00:21.498Z,1006.32
2022-08-18T06:00:59.701Z,1006.29
2022-08-18T06:01:32.155Z,1006.29
2022-08-18T06:02:07.285Z,1006.31
2022-08-18T06:02:42.708Z,1006.31
2022-08-18T06:03:17.836Z,1006.29
2022-08-18T06:03:53.033Z,1006.31
2022-08-18T06:04:28.624Z,1006.29
2022-08-18T06:05:03.744Z,1006.35
2022-08-18T06:05:38.972Z,1006.33
2022-08-18T06:06:14.302Z,1006.30
2022-08-18T06:06:49.188Z,1006.24
2022-08-18T06:07:24.396Z,1006.27
2022-08-18T06:07:59.789Z,1006.28
2022-08-18T06:08:35.302Z,1006.28
2022-08-18T06:09:10.473Z,1006.27
2022-08-18T06:09:45.769Z,1006.25
2022-08-18T06:10:21.300Z,1006.27
2022-08-18T06:10:56.832Z,1006.26
2022-08-18T06:11:32.024Z,1006.30
2022-08-18T06:12:07.285Z,1006.29
2022-08-18T06:12:46.684Z,1006.30
2022-08-18T06:13:18.012Z,1006.27
2022-08-18T06:13:57.770Z,1006.28
2022-08-18T06:14:28.939Z,1006.28
2022-08-18T06:15:05.990Z,1006.27
2022-08-18T06:15:39.435Z,1006.23
2022-08-18T06:16:14.532Z,1006.27
2022-08-18T06:16:50.092Z,1006.27
2022-08-18T06:17:25.621Z,1006.27
2022-08-18T06:18:00.722Z,1006.26
2022-08-18T06:18:35.979Z,1006.29
2022-08-18T06:19:11.184Z,1006.30
2022-08-18T06:19:46.373Z,1006.29
2022-08-18T06:20:21.687Z,1006.33
2022-08-18T06:20:56.910Z,1006.35
2022-08-18T06:21:34.494Z,1006.32
2022-08-18T06:22:07.580Z,1006.36
2022-08-18T06:22:52.212Z,1006.34
2022-08-18T06:23:18.415Z,1006.34
2022-08-18T06:23:54.106Z,1006.36
2022-08-18T06:24:29.333Z,1006.33
2022-08-18T06:25:04.448Z,1006.38
2022-08-18T06:25:39.811Z,1006.43
2022-08-18T06:26:15.218Z,1006.39
2022-08-18T06:26:50.545Z,1006.40
2022-08-18T06:27:25.760Z,1006.43
2022-08-18T06:28:01.054Z,1006.46
2022-08-18T06:28:36.468Z,1006.43
2022-08-18T06:29:11.882Z,1006.40
2022-08-18T06:29:47.271Z,1006.41
2022-08-18T06:30:22.484Z,1006.44
2022-08-18T06:30:57.675Z,1006.44
2022-08-18T06:31:33.139Z,1006.44
2022-08-18T06:32:08.270Z,1006.43
2022-08-18T06:32:43.963Z,1006.45
2022-08-18T06:33:19.207Z,1006.47
2022-08-18T06:33:54.413Z,1006.46
2022-08-18T06:34:29.721Z,1006.44
2022-08-18T06:35:04.738Z,1006.47
2022-08-18T06:35:40.002Z,1006.47
2022-08-18T06:36:18.666Z,1006.45
2022-08-18T06:36:50.507Z,1006.47
2022-08-18T06:37:25.836Z,1006.48
2022-08-18T06:38:01.222Z,1006.49
2022-08-18T06:38:36.637Z,1006.48
2022-08-18T06:39:12.342Z,1006.50
2022-08-18T06:39:47.597Z,1006.49
2022-08-18T06:40:22.659Z,1006.49
2022-08-18T06:40:58.059Z,1006.48
2022-08-18T06:41:42.606Z,1006.50
2022-08-18T06:42:09.025Z,1006.51
2022-08-18T06:42:44.265Z,1006.52
2022-08-18T06:43:19.898Z,1006.54
2022-08-18T06:43:55.064Z,1006.52
2022-08-18T06:44:30.617Z,1006.54
2022-08-18T06:45:06.107Z,1006.54
2022-08-18T06:45:41.240Z,1006.58
2022-08-18T06:46:16.444Z,1006.55
2022-08-18T06:46:53.823Z,1006.62
2022-08-18T06:47:26.963Z,1006.60
2022-08-18T06:48:02.085Z,1006.57
2022-08-18T06:48:37.421Z,1006.62
2022-08-18T06:49:12.742Z,1006.59
2022-08-18T06:49:47.946Z,1006.61
2022-08-18T06:50:23.564Z,1006.64
2022-08-18T06:50:58.755Z,1006.64
2022-08-18T06:51:36.340Z,1006.63
2022-08-18T06:52:09.408Z,1006.62
2022-08-18T06:52:44.729Z,1006.63
2022-08-18T06:53:27.708Z,1006.64
2022-08-18T06:53:54.767Z,1006.61
2022-08-18T06:54:30.075Z,1006.65
2022-08-18T06:55:05.281Z,1006.65
2022-08-18T06:55:40.807Z,1006.65
2022-08-18T06:56:26.201Z,1006.66
2022-08-18T06:56:51.232Z,1006.66
2022-08-18T06:57:26.839Z,1006.68
2022-08-18T06:58:01.922Z,1006.68
2022-08-18T06:58:37.143Z,1006.71
2022-08-18T06:59:12.531Z,1006.70
2022-08-18T06:59:47.651Z,1006.72
2022-08-18T07:00:22.882Z,1006.71
2022-08-18T07:00:58.114Z,1006.74
2022-08-18T07:01:33.345Z,1006.76
2022-08-18T07:02:08.390Z,1006.79
2022-08-18T07:02:43.722Z,1006.77
2022-08-18T07:03:19.011Z,1006.76
2022-08-18T07:03:54.439Z,1006.79
2022-08-18T07:04:29.884Z,1006.79
2022-08-18T07:05:05.204Z,1006.82
2022-08-18T07:05:40.412Z,1006.81
2022-08-18T07:06:15.453Z,1006.82
2022-08-18T07:06:50.866Z,1006.79